sensor_id;sensor_type;location;lat;lon;timestamp;temperature;humidity
26230;DHT22;13960;50.860;4.352;2022-09-02T00:03:46;20.70;97.10
26230;DHT22;13960;50.860;4.352;2022-09-02T00:06:12;20.70;97.00
26230;DHT22;13960;50.860;4.352;2022-09-02T00:08:38;20.50;97.30
26230;DHT22;13960;50.860;4.352;2022-09-02T00:11:04;20.50;97.50
26230;DHT22;13960;50.860;4.352;2022-09-02T00:13:30;20.50;97.90
26230;DHT22;13960;50.860;4.352;2022-09-02T00:15:56;20.50;98.10
26230;DHT22;13960;50.860;4.352;2022-09-02T00:18:22;20.60;97.70
26230;DHT22;13960;50.860;4.352;2022-09-02T00:20:49;20.60;98.10
26230;DHT22;13960;50.860;4.352;2022-09-02T00:23:15;20.70;98.00
26230;DHT22;13960;50.860;4.352;2022-09-02T00:25:41;20.60;98.30
26230;DHT22;13960;50.860;4.352;2022-09-02T00:28:08;20.50;98.70
26230;DHT22;13960;50.860;4.352;2022-09-02T00:30:34;20.40;99.10
26230;DHT22;13960;50.860;4.352;2022-09-02T00:33:00;20.40;99.70
26230;DHT22;13960;50.860;4.352;2022-09-02T00:35:26;20.30;99.90
26230;DHT22;13960;50.860;4.352;2022-09-02T00:37:52;20.20;99.90
26230;DHT22;13960;50.860;4.352;2022-09-02T00:40:17;20.10;99.90
26230;DHT22;13960;50.860;4.352;2022-09-02T00:42:43;20.30;99.90
26230;DHT22;13960;50.860;4.352;2022-09-02T00:45:09;20.40;99.90
26230;DHT22;13960;50.860;4.352;2022-09-02T00:47:35;20.40;99.90
26230;DHT22;13960;50.860;4.352;2022-09-02T00:50:03;20.40;99.90
26230;DHT22;13960;50.860;4.352;2022-09-02T00:52:31;20.20;99.90
26230;DHT22;13960;50.860;4.352;2022-09-02T00:57:24;20.20;99.90
26230;DHT22;13960;50.860;4.352;2022-09-02T01:00:10;20.10;99.90
26230;DHT22;13960;50.860;4.352;2022-09-02T01:02:38;20.00;99.90
26230;DHT22;13960;50.860;4.352;2022-09-02T01:05:04;19.80;99.90
26230;DHT22;13960;50.860;4.352;2022-09-02T01:07:31;19.90;99.90
26230;DHT22;13960;50.860;4.352;2022-09-02T01:10:03;19.80;99.90
26230;DHT22;13960;50.860;4.352;2022-09-02T01:12:29;19.80;99.90
26230;DHT22;13960;50.860;4.352;2022-09-02T01:14:55;19.70;99.90
26230;DHT22;13960;50.860;4.352;2022-09-02T01:17:22;19.90;99.90
26230;DHT22;13960;50.860;4.352;2022-09-02T01:19:50;20.30;99.90
26230;DHT22;13960;50.860;4.352;2022-09-02T01:22:18;20.40;99.90
26230;DHT22;13960;50.860;4.352;2022-09-02T01:24:44;20.30;99.90
26230;DHT22;13960;50.860;4.352;2022-09-02T01:27:13;19.90;99.90
26230;DHT22;13960;50.860;4.352;2022-09-02T01:29:39;19.70;99.90
26230;DHT22;13960;50.860;4.352;2022-09-02T01:32:04;19.70;99.90
26230;DHT22;13960;50.860;4.352;2022-09-02T01:34:30;19.90;99.90
26230;DHT22;13960;50.860;4.352;2022-09-02T01:36:55;20.00;99.90
26230;DHT22;13960;50.860;4.352;2022-09-02T01:39:21;20.10;99.90
26230;DHT22;13960;50.860;4.352;2022-09-02T01:41:46;20.00;99.90
26230;DHT22;13960;50.860;4.352;2022-09-02T01:44:12;20.20;99.90
26230;DHT22;13960;50.860;4.352;2022-09-02T01:46:40;20.30;99.90
26230;DHT22;13960;50.860;4.352;2022-09-02T01:49:06;20.30;99.90
26230;DHT22;13960;50.860;4.352;2022-09-02T01:51:31;20.20;99.90
26230;DHT22;13960;50.860;4.352;2022-09-02T01:53:57;19.90;99.90
26230;DHT22;13960;50.860;4.352;2022-09-02T01:56:22;19.80;99.90
26230;DHT22;13960;50.860;4.352;2022-09-02T01:58:48;19.80;99.90
26230;DHT22;13960;50.860;4.352;2022-09-02T02:01:13;20.00;99.90
26230;DHT22;13960;50.860;4.352;2022-09-02T02:03:39;20.10;99.90
26230;DHT22;13960;50.860;4.352;2022-09-02T02:06:10;20.20;99.90
26230;DHT22;13960;50.860;4.352;2022-09-02T02:08:36;20.20;99.90
26230;DHT22;13960;50.860;4.352;2022-09-02T02:11:01;20.30;99.90
26230;DHT22;13960;50.860;4.352;2022-09-02T02:13:27;20.40;99.90
26230;DHT22;13960;50.860;4.352;2022-09-02T02:15:52;20.40;99.90
26230;DHT22;13960;50.860;4.352;2022-09-02T02:18:18;20.40;99.90
26230;DHT22;13960;50.860;4.352;2022-09-02T02:20:43;20.40;99.90
26230;DHT22;13960;50.860;4.352;2022-09-02T02:23:09;20.30;99.90
26230;DHT22;13960;50.860;4.352;2022-09-02T02:25:34;20.30;99.90
26230;DHT22;13960;50.860;4.352;2022-09-02T02:28:00;20.20;99.90
26230;DHT22;13960;50.860;4.352;2022-09-02T02:30:25;20.20;99.90
26230;DHT22;13960;50.860;4.352;2022-09-02T02:32:51;20.20;99.90
26230;DHT22;13960;50.860;4.352;2022-09-02T02:35:17;20.30;99.90
26230;DHT22;13960;50.860;4.352;2022-09-02T02:37:43;20.40;99.90
26230;DHT22;13960;50.860;4.352;2022-09-02T02:40:10;20.60;99.90
26230;DHT22;13960;50.860;4.352;2022-09-02T02:42:36;20.50;99.90
26230;DHT22;13960;50.860;4.352;2022-09-02T02:45:03;20.60;99.90
26230;DHT22;13960;50.860;4.352;2022-09-02T02:47:34;20.50;99.90
26230;DHT22;13960;50.860;4.352;2022-09-02T02:49:59;20.40;99.90
26230;DHT22;13960;50.860;4.352;2022-09-02T02:52:25;20.50;99.90
26230;DHT22;13960;50.860;4.352;2022-09-02T02:54:51;20.40;99.90
26230;DHT22;13960;50.860;4.352;2022-09-02T02:57:16;20.40;99.90
26230;DHT22;13960;50.860;4.352;2022-09-02T02:59:42;20.00;99.90
26230;DHT22;13960;50.860;4.352;2022-09-02T03:02:08;20.10;99.90
26230;DHT22;13960;50.860;4.352;2022-09-02T03:04:33;20.10;99.90
26230;DHT22;13960;50.860;4.352;2022-09-02T03:06:59;20.00;99.90
26230;DHT22;13960;50.860;4.352;2022-09-02T03:09:24;20.00;99.90
26230;DHT22;13960;50.860;4.352;2022-09-02T03:11:50;19.90;99.90
26230;DHT22;13960;50.860;4.352;2022-09-02T03:14:15;19.70;99.90
26230;DHT22;13960;50.860;4.352;2022-09-02T03:16:43;19.70;99.90
26230;DHT22;13960;50.860;4.352;2022-09-02T03:19:09;19.70;99.90
26230;DHT22;13960;50.860;4.352;2022-09-02T03:21:38;19.80;99.90
26230;DHT22;13960;50.860;4.352;2022-09-02T03:24:04;19.90;99.90
26230;DHT22;13960;50.860;4.352;2022-09-02T03:26:29;20.00;99.90
26230;DHT22;13960;50.860;4.352;2022-09-02T03:28:55;20.10;99.90
26230;DHT22;13960;50.860;4.352;2022-09-02T03:31:21;20.10;99.90
26230;DHT22;13960;50.860;4.352;2022-09-02T03:33:48;20.20;99.90
26230;DHT22;13960;50.860;4.352;2022-09-02T03:36:21;20.30;99.90
26230;DHT22;13960;50.860;4.352;2022-09-02T03:38:47;20.20;99.90
26230;DHT22;13960;50.860;4.352;2022-09-02T03:41:12;20.00;99.90
26230;DHT22;13960;50.860;4.352;2022-09-02T03:43:38;20.00;99.90
26230;DHT22;13960;50.860;4.352;2022-09-02T03:46:03;20.00;99.90
26230;DHT22;13960;50.860;4.352;2022-09-02T03:48:29;20.00;99.90
26230;DHT22;13960;50.860;4.352;2022-09-02T03:50:55;20.10;99.90
26230;DHT22;13960;50.860;4.352;2022-09-02T03:53:20;20.10;99.90
26230;DHT22;13960;50.860;4.352;2022-09-02T03:55:46;20.10;99.90
26230;DHT22;13960;50.860;4.352;2022-09-02T03:58:11;20.30;99.90
26230;DHT22;13960;50.860;4.352;2022-09-02T04:00:37;20.30;99.90
26230;DHT22;13960;50.860;4.352;2022-09-02T04:03:03;20.10;99.90
26230;DHT22;13960;50.860;4.352;2022-09-02T04:05:29;20.00;99.90
26230;DHT22;13960;50.860;4.352;2022-09-02T04:07:55;20.00;99.90
26230;DHT22;13960;50.860;4.352;2022-09-02T04:10:21;19.90;99.90
26230;DHT22;13960;50.860;4.352;2022-09-02T04:12:46;19.90;99.90
26230;DHT22;13960;50.860;4.352;2022-09-02T04:15:12;20.00;99.90
26230;DHT22;13960;50.860;4.352;2022-09-02T04:17:38;19.90;99.90
26230;DHT22;13960;50.860;4.352;2022-09-02T04:20:05;20.00;99.90
26230;DHT22;13960;50.860;4.352;2022-09-02T04:22:31;20.00;99.90
26230;DHT22;13960;50.860;4.352;2022-09-02T04:24:57;20.10;99.90
26230;DHT22;13960;50.860;4.352;2022-09-02T04:27:22;20.20;99.90
26230;DHT22;13960;50.860;4.352;2022-09-02T04:29:48;20.10;99.90
26230;DHT22;13960;50.860;4.352;2022-09-02T04:32:14;19.70;99.90
26230;DHT22;13960;50.860;4.352;2022-09-02T04:34:39;19.10;99.90
26230;DHT22;13960;50.860;4.352;2022-09-02T04:37:05;19.10;99.90
26230;DHT22;13960;50.860;4.352;2022-09-02T04:39:30;19.30;99.90
26230;DHT22;13960;50.860;4.352;2022-09-02T04:41:56;19.10;99.90
26230;DHT22;13960;50.860;4.352;2022-09-02T04:44:21;19.00;99.90
26230;DHT22;13960;50.860;4.352;2022-09-02T04:46:47;19.10;99.90
26230;DHT22;13960;50.860;4.352;2022-09-02T04:49:12;19.00;99.90
26230;DHT22;13960;50.860;4.352;2022-09-02T04:51:38;19.00;99.90
26230;DHT22;13960;50.860;4.352;2022-09-02T04:54:04;19.30;99.90
26230;DHT22;13960;50.860;4.352;2022-09-02T04:56:29;19.40;99.90
26230;DHT22;13960;50.860;4.352;2022-09-02T04:58:56;19.50;99.90
26230;DHT22;13960;50.860;4.352;2022-09-02T05:01:23;19.60;99.90
26230;DHT22;13960;50.860;4.352;2022-09-02T05:03:49;19.50;99.90
26230;DHT22;13960;50.860;4.352;2022-09-02T05:06:17;19.50;99.90
26230;DHT22;13960;50.860;4.352;2022-09-02T05:08:43;19.50;99.90
26230;DHT22;13960;50.860;4.352;2022-09-02T05:11:10;19.40;99.90
26230;DHT22;13960;50.860;4.352;2022-09-02T05:13:36;19.10;99.90
26230;DHT22;13960;50.860;4.352;2022-09-02T05:16:02;19.00;99.90
26230;DHT22;13960;50.860;4.352;2022-09-02T05:18:28;19.20;99.90
26230;DHT22;13960;50.860;4.352;2022-09-02T05:20:54;19.40;99.90
26230;DHT22;13960;50.860;4.352;2022-09-02T05:23:19;19.40;99.90
26230;DHT22;13960;50.860;4.352;2022-09-02T05:25:45;19.50;99.90
26230;DHT22;13960;50.860;4.352;2022-09-02T05:28:11;19.60;99.90
26230;DHT22;13960;50.860;4.352;2022-09-02T05:30:37;19.60;99.90
26230;DHT22;13960;50.860;4.352;2022-09-02T05:33:04;19.60;99.90
26230;DHT22;13960;50.860;4.352;2022-09-02T05:35:29;19.60;99.90
26230;DHT22;13960;50.860;4.352;2022-09-02T05:37:55;19.40;99.90
26230;DHT22;13960;50.860;4.352;2022-09-02T05:40:21;19.10;99.90
26230;DHT22;13960;50.860;4.352;2022-09-02T05:42:46;19.10;99.90
26230;DHT22;13960;50.860;4.352;2022-09-02T05:45:12;19.10;99.90
26230;DHT22;13960;50.860;4.352;2022-09-02T05:47:38;18.80;99.90
26230;DHT22;13960;50.860;4.352;2022-09-02T05:50:04;18.80;99.90
26230;DHT22;13960;50.860;4.352;2022-09-02T05:52:30;18.90;99.90
26230;DHT22;13960;50.860;4.352;2022-09-02T05:54:56;19.10;99.90
26230;DHT22;13960;50.860;4.352;2022-09-02T05:57:23;19.40;99.90
26230;DHT22;13960;50.860;4.352;2022-09-02T05:59:49;19.30;99.90
26230;DHT22;13960;50.860;4.352;2022-09-02T06:02:20;19.10;99.90
26230;DHT22;13960;50.860;4.352;2022-09-02T06:04:47;19.10;99.90
26230;DHT22;13960;50.860;4.352;2022-09-02T06:07:13;19.10;99.90
26230;DHT22;13960;50.860;4.352;2022-09-02T06:09:40;19.20;99.90
26230;DHT22;13960;50.860;4.352;2022-09-02T06:12:06;19.30;99.90
26230;DHT22;13960;50.860;4.352;2022-09-02T06:14:33;19.30;99.90
26230;DHT22;13960;50.860;4.352;2022-09-02T06:16:59;19.00;99.90
26230;DHT22;13960;50.860;4.352;2022-09-02T06:19:25;19.10;99.90
26230;DHT22;13960;50.860;4.352;2022-09-02T06:21:51;19.30;99.90
26230;DHT22;13960;50.860;4.352;2022-09-02T06:24:17;19.30;99.90
26230;DHT22;13960;50.860;4.352;2022-09-02T06:26:42;19.20;99.90
26230;DHT22;13960;50.860;4.352;2022-09-02T06:29:08;19.20;99.90
26230;DHT22;13960;50.860;4.352;2022-09-02T06:31:34;19.20;99.90
26230;DHT22;13960;50.860;4.352;2022-09-02T06:34:00;19.20;99.90
26230;DHT22;13960;50.860;4.352;2022-09-02T06:36:27;19.30;99.90
26230;DHT22;13960;50.860;4.352;2022-09-02T06:38:53;19.30;99.90
26230;DHT22;13960;50.860;4.352;2022-09-02T06:41:20;19.40;99.90
26230;DHT22;13960;50.860;4.352;2022-09-02T06:43:47;19.60;99.90
26230;DHT22;13960;50.860;4.352;2022-09-02T06:46:14;19.70;99.90
26230;DHT22;13960;50.860;4.352;2022-09-02T06:48:40;19.90;99.90
26230;DHT22;13960;50.860;4.352;2022-09-02T06:51:05;19.80;99.90
26230;DHT22;13960;50.860;4.352;2022-09-02T06:53:31;19.60;99.90
26230;DHT22;13960;50.860;4.352;2022-09-02T06:55:57;19.70;99.90
26230;DHT22;13960;50.860;4.352;2022-09-02T06:58:22;19.80;99.90
26230;DHT22;13960;50.860;4.352;2022-09-02T07:00:48;20.10;99.90
26230;DHT22;13960;50.860;4.352;2022-09-02T07:03:13;20.10;99.90
26230;DHT22;13960;50.860;4.352;2022-09-02T07:06:05;20.20;99.90
26230;DHT22;13960;50.860;4.352;2022-09-02T07:08:37;20.40;99.90
26230;DHT22;13960;50.860;4.352;2022-09-02T07:11:03;20.60;99.90
26230;DHT22;13960;50.860;4.352;2022-09-02T07:13:29;20.70;99.90
26230;DHT22;13960;50.860;4.352;2022-09-02T07:15:54;20.60;99.90
26230;DHT22;13960;50.860;4.352;2022-09-02T07:18:20;20.90;99.90
26230;DHT22;13960;50.860;4.352;2022-09-02T07:20:46;21.00;99.90
26230;DHT22;13960;50.860;4.352;2022-09-02T07:23:12;20.90;99.90
26230;DHT22;13960;50.860;4.352;2022-09-02T07:25:38;20.50;99.90
26230;DHT22;13960;50.860;4.352;2022-09-02T07:28:06;20.30;99.90
26230;DHT22;13960;50.860;4.352;2022-09-02T07:30:31;20.60;99.90
26230;DHT22;13960;50.860;4.352;2022-09-02T07:32:57;20.80;99.90
26230;DHT22;13960;50.860;4.352;2022-09-02T07:35:23;20.80;99.90
26230;DHT22;13960;50.860;4.352;2022-09-02T07:37:49;20.90;99.90
26230;DHT22;13960;50.860;4.352;2022-09-02T07:40:15;20.70;99.90
26230;DHT22;13960;50.860;4.352;2022-09-02T07:42:41;20.70;99.90
26230;DHT22;13960;50.860;4.352;2022-09-02T07:45:07;20.80;99.90
26230;DHT22;13960;50.860;4.352;2022-09-02T07:47:33;20.80;99.90
26230;DHT22;13960;50.860;4.352;2022-09-02T07:49:58;21.00;99.90
26230;DHT22;13960;50.860;4.352;2022-09-02T07:52:24;21.10;99.90
26230;DHT22;13960;50.860;4.352;2022-09-02T07:54:50;20.90;99.90
26230;DHT22;13960;50.860;4.352;2022-09-02T07:57:15;20.90;99.90
26230;DHT22;13960;50.860;4.352;2022-09-02T07:59:41;21.00;99.90
26230;DHT22;13960;50.860;4.352;2022-09-02T08:02:06;21.10;99.90
26230;DHT22;13960;50.860;4.352;2022-09-02T08:04:33;21.20;99.90
26230;DHT22;13960;50.860;4.352;2022-09-02T08:06:59;21.30;99.90
26230;DHT22;13960;50.860;4.352;2022-09-02T08:09:24;21.20;99.90
26230;DHT22;13960;50.860;4.352;2022-09-02T08:11:50;21.00;99.90
26230;DHT22;13960;50.860;4.352;2022-09-02T08:14:18;21.00;99.90
26230;DHT22;13960;50.860;4.352;2022-09-02T08:16:44;21.10;99.90
26230;DHT22;13960;50.860;4.352;2022-09-02T08:19:10;21.40;99.90
26230;DHT22;13960;50.860;4.352;2022-09-02T08:21:36;21.50;99.90
26230;DHT22;13960;50.860;4.352;2022-09-02T08:24:01;21.50;99.90
26230;DHT22;13960;50.860;4.352;2022-09-02T08:26:28;21.40;99.90
26230;DHT22;13960;50.860;4.352;2022-09-02T08:28:54;21.40;99.90
26230;DHT22;13960;50.860;4.352;2022-09-02T08:31:19;21.40;99.90
26230;DHT22;13960;50.860;4.352;2022-09-02T08:33:45;21.60;99.90
26230;DHT22;13960;50.860;4.352;2022-09-02T08:36:11;21.70;99.90
26230;DHT22;13960;50.860;4.352;2022-09-02T08:38:39;21.60;99.90
26230;DHT22;13960;50.860;4.352;2022-09-02T08:43:57;21.50;99.90
26230;DHT22;13960;50.860;4.352;2022-09-02T08:46:25;21.50;99.90
26230;DHT22;13960;50.860;4.352;2022-09-02T08:48:58;21.60;99.90
26230;DHT22;13960;50.860;4.352;2022-09-02T08:53:55;21.90;99.90
26230;DHT22;13960;50.860;4.352;2022-09-02T08:56:23;21.90;99.90
26230;DHT22;13960;50.860;4.352;2022-09-02T08:58:49;22.00;99.90
26230;DHT22;13960;50.860;4.352;2022-09-02T09:04:05;22.20;99.90
26230;DHT22;13960;50.860;4.352;2022-09-02T09:11:43;22.40;99.90
26230;DHT22;13960;50.860;4.352;2022-09-02T09:14:22;22.30;99.90
26230;DHT22;13960;50.860;4.352;2022-09-02T09:16:57;22.30;99.90
26230;DHT22;13960;50.860;4.352;2022-09-02T09:22:00;22.60;99.90
26230;DHT22;13960;50.860;4.352;2022-09-02T09:24:43;22.70;99.90
26230;DHT22;13960;50.860;4.352;2022-09-02T09:27:13;22.80;99.90
26230;DHT22;13960;50.860;4.352;2022-09-02T09:29:39;22.90;99.90
26230;DHT22;13960;50.860;4.352;2022-09-02T09:32:05;22.90;99.90
26230;DHT22;13960;50.860;4.352;2022-09-02T09:37:27;22.90;99.90
26230;DHT22;13960;50.860;4.352;2022-09-02T09:39:53;22.90;99.90
26230;DHT22;13960;50.860;4.352;2022-09-02T09:42:28;23.10;99.90
26230;DHT22;13960;50.860;4.352;2022-09-02T09:44:54;23.10;99.90
26230;DHT22;13960;50.860;4.352;2022-09-02T09:47:21;23.00;99.90
26230;DHT22;13960;50.860;4.352;2022-09-02T09:49:49;23.10;99.90
26230;DHT22;13960;50.860;4.352;2022-09-02T09:52:25;23.30;99.90
26230;DHT22;13960;50.860;4.352;2022-09-02T09:55:04;23.40;99.90
26230;DHT22;13960;50.860;4.352;2022-09-02T09:57:30;23.30;99.90
26230;DHT22;13960;50.860;4.352;2022-09-02T09:59:56;23.40;99.90
26230;DHT22;13960;50.860;4.352;2022-09-02T10:02:23;23.60;99.90
26230;DHT22;13960;50.860;4.352;2022-09-02T10:04:49;23.70;99.90
26230;DHT22;13960;50.860;4.352;2022-09-02T10:07:32;23.50;99.90
26230;DHT22;13960;50.860;4.352;2022-09-02T10:10:20;23.50;99.90
26230;DHT22;13960;50.860;4.352;2022-09-02T10:12:45;23.70;99.90
26230;DHT22;13960;50.860;4.352;2022-09-02T10:15:11;23.90;99.90
26230;DHT22;13960;50.860;4.352;2022-09-02T10:20:14;23.60;99.90
26230;DHT22;13960;50.860;4.352;2022-09-02T10:28:01;23.90;99.90
26230;DHT22;13960;50.860;4.352;2022-09-02T10:30:30;23.80;99.90
26230;DHT22;13960;50.860;4.352;2022-09-02T10:35:41;24.10;99.90
26230;DHT22;13960;50.860;4.352;2022-09-02T10:38:27;24.10;99.90
26230;DHT22;13960;50.860;4.352;2022-09-02T10:41:02;24.10;99.90
26230;DHT22;13960;50.860;4.352;2022-09-02T10:45:59;24.30;99.90
26230;DHT22;13960;50.860;4.352;2022-09-02T10:51:12;24.40;99.90
26230;DHT22;13960;50.860;4.352;2022-09-02T10:53:50;24.30;99.90
26230;DHT22;13960;50.860;4.352;2022-09-02T10:56:23;24.30;99.90
26230;DHT22;13960;50.860;4.352;2022-09-02T10:59:03;24.40;99.90
26230;DHT22;13960;50.860;4.352;2022-09-02T11:01:33;24.50;99.90
26230;DHT22;13960;50.860;4.352;2022-09-02T11:06:44;24.50;99.90
26230;DHT22;13960;50.860;4.352;2022-09-02T11:11:38;24.70;99.90
26230;DHT22;13960;50.860;4.352;2022-09-02T11:16:35;24.80;99.90
26230;DHT22;13960;50.860;4.352;2022-09-02T11:26:53;24.90;99.90
26230;DHT22;13960;50.860;4.352;2022-09-02T11:29:37;25.00;99.90
26230;DHT22;13960;50.860;4.352;2022-09-02T11:34:50;25.30;99.90
26230;DHT22;13960;50.860;4.352;2022-09-02T11:37:24;25.30;99.90
26230;DHT22;13960;50.860;4.352;2022-09-02T11:39:52;25.50;99.90
26230;DHT22;13960;50.860;4.352;2022-09-02T11:47:44;25.70;99.90
26230;DHT22;13960;50.860;4.352;2022-09-02T11:55:49;26.00;99.90
26230;DHT22;13960;50.860;4.352;2022-09-02T12:01:03;26.30;99.90
26230;DHT22;13960;50.860;4.352;2022-09-02T12:03:29;26.50;99.90
26230;DHT22;13960;50.860;4.352;2022-09-02T12:11:04;27.00;99.90
26230;DHT22;13960;50.860;4.352;2022-09-02T12:13:32;27.20;99.60
26230;DHT22;13960;50.860;4.352;2022-09-02T12:19:15;27.40;98.40
26230;DHT22;13960;50.860;4.352;2022-09-02T12:21:35;27.40;97.50
26230;DHT22;13960;50.860;4.352;2022-09-02T12:24:02;27.10;97.40
26230;DHT22;13960;50.860;4.352;2022-09-02T12:31:47;26.90;96.70
26230;DHT22;13960;50.860;4.352;2022-09-02T12:36:56;27.30;96.10
26230;DHT22;13960;50.860;4.352;2022-09-02T12:47:10;27.90;93.20
26230;DHT22;13960;50.860;4.352;2022-09-02T12:52:10;27.70;93.20
26230;DHT22;13960;50.860;4.352;2022-09-02T12:54:41;27.80;92.80
26230;DHT22;13960;50.860;4.352;2022-09-02T12:57:08;27.80;92.80
26230;DHT22;13960;50.860;4.352;2022-09-02T12:59:35;27.90;92.30
26230;DHT22;13960;50.860;4.352;2022-09-02T13:05:16;28.20;91.80
26230;DHT22;13960;50.860;4.352;2022-09-02T13:14:51;28.50;90.70
26230;DHT22;13960;50.860;4.352;2022-09-02T13:17:20;28.70;90.50
26230;DHT22;13960;50.860;4.352;2022-09-02T13:32:30;29.20;85.80
26230;DHT22;13960;50.860;4.352;2022-09-02T13:34:58;29.80;84.90
26230;DHT22;13960;50.860;4.352;2022-09-02T13:37:32;30.10;83.90
26230;DHT22;13960;50.860;4.352;2022-09-02T13:40:00;30.10;83.80
26230;DHT22;13960;50.860;4.352;2022-09-02T13:42:26;30.40;83.30
26230;DHT22;13960;50.860;4.352;2022-09-02T13:47:39;31.10;81.70
26230;DHT22;13960;50.860;4.352;2022-09-02T13:50:05;31.30;80.40
26230;DHT22;13960;50.860;4.352;2022-09-02T13:52:31;31.30;79.10
26230;DHT22;13960;50.860;4.352;2022-09-02T13:54:57;31.20;78.70
26230;DHT22;13960;50.860;4.352;2022-09-02T13:57:24;30.80;78.10
26230;DHT22;13960;50.860;4.352;2022-09-02T13:59:52;30.70;77.80
26230;DHT22;13960;50.860;4.352;2022-09-02T14:04:43;30.80;77.40
26230;DHT22;13960;50.860;4.352;2022-09-02T14:07:08;30.80;76.50
26230;DHT22;13960;50.860;4.352;2022-09-02T14:09:34;31.50;76.50
26230;DHT22;13960;50.860;4.352;2022-09-02T14:12:00;31.80;75.60
26230;DHT22;13960;50.860;4.352;2022-09-02T14:14:27;32.00;73.80
26230;DHT22;13960;50.860;4.352;2022-09-02T14:17:15;31.90;74.40
26230;DHT22;13960;50.860;4.352;2022-09-02T14:19:38;31.80;73.40
26230;DHT22;13960;50.860;4.352;2022-09-02T14:22:04;31.80;73.20
26230;DHT22;13960;50.860;4.352;2022-09-02T14:24:36;31.60;73.20
26230;DHT22;13960;50.860;4.352;2022-09-02T14:27:02;32.70;72.50
26230;DHT22;13960;50.860;4.352;2022-09-02T14:29:28;34.80;70.60
26230;DHT22;13960;50.860;4.352;2022-09-02T14:32:08;35.80;68.10
26230;DHT22;13960;50.860;4.352;2022-09-02T14:34:35;37.70;65.90
26230;DHT22;13960;50.860;4.352;2022-09-02T14:37:12;38.80;62.90
26230;DHT22;13960;50.860;4.352;2022-09-02T14:42:23;38.80;60.30
26230;DHT22;13960;50.860;4.352;2022-09-02T14:44:48;38.40;59.30
26230;DHT22;13960;50.860;4.352;2022-09-02T14:47:15;39.10;58.60
26230;DHT22;13960;50.860;4.352;2022-09-02T14:49:45;39.10;58.00
26230;DHT22;13960;50.860;4.352;2022-09-02T14:52:19;39.10;56.60
26230;DHT22;13960;50.860;4.352;2022-09-02T14:54:46;38.20;56.10
26230;DHT22;13960;50.860;4.352;2022-09-02T14:59:48;38.60;56.10
26230;DHT22;13960;50.860;4.352;2022-09-02T15:04:55;37.40;55.30
26230;DHT22;13960;50.860;4.352;2022-09-02T15:07:21;35.00;57.50
26230;DHT22;13960;50.860;4.352;2022-09-02T15:09:47;34.50;58.80
26230;DHT22;13960;50.860;4.352;2022-09-02T15:12:22;35.80;58.50
26230;DHT22;13960;50.860;4.352;2022-09-02T15:14:54;37.00;57.20
26230;DHT22;13960;50.860;4.352;2022-09-02T15:17:19;38.10;55.70
26230;DHT22;13960;50.860;4.352;2022-09-02T15:19:45;36.10;56.30
26230;DHT22;13960;50.860;4.352;2022-09-02T15:22:11;34.40;58.10
26230;DHT22;13960;50.860;4.352;2022-09-02T15:24:37;33.60;59.10
26230;DHT22;13960;50.860;4.352;2022-09-02T15:27:03;32.80;59.80
26230;DHT22;13960;50.860;4.352;2022-09-02T15:29:28;32.10;61.00
26230;DHT22;13960;50.860;4.352;2022-09-02T15:31:54;31.50;61.30
26230;DHT22;13960;50.860;4.352;2022-09-02T15:34:20;31.40;61.50
26230;DHT22;13960;50.860;4.352;2022-09-02T15:36:46;31.10;61.90
26230;DHT22;13960;50.860;4.352;2022-09-02T15:39:11;30.90;62.30
26230;DHT22;13960;50.860;4.352;2022-09-02T15:41:37;30.50;62.80
26230;DHT22;13960;50.860;4.352;2022-09-02T15:44:07;30.00;63.30
26230;DHT22;13960;50.860;4.352;2022-09-02T15:46:33;29.90;63.80
26230;DHT22;13960;50.860;4.352;2022-09-02T15:49:03;30.10;63.80
26230;DHT22;13960;50.860;4.352;2022-09-02T15:51:29;30.20;63.90
26230;DHT22;13960;50.860;4.352;2022-09-02T15:53:55;30.10;63.40
26230;DHT22;13960;50.860;4.352;2022-09-02T15:56:22;30.10;64.10
26230;DHT22;13960;50.860;4.352;2022-09-02T15:58:55;30.00;65.10
26230;DHT22;13960;50.860;4.352;2022-09-02T16:01:24;30.10;64.70
26230;DHT22;13960;50.860;4.352;2022-09-02T16:03:50;29.80;63.80
26230;DHT22;13960;50.860;4.352;2022-09-02T16:06:15;29.70;64.40
26230;DHT22;13960;50.860;4.352;2022-09-02T16:08:41;29.80;64.10
26230;DHT22;13960;50.860;4.352;2022-09-02T16:11:07;29.80;64.10
26230;DHT22;13960;50.860;4.352;2022-09-02T16:13:33;29.90;63.80
26230;DHT22;13960;50.860;4.352;2022-09-02T16:16:00;29.60;64.90
26230;DHT22;13960;50.860;4.352;2022-09-02T16:18:25;29.70;64.60
26230;DHT22;13960;50.860;4.352;2022-09-02T16:20:50;29.50;64.40
26230;DHT22;13960;50.860;4.352;2022-09-02T16:23:16;29.40;66.00
26230;DHT22;13960;50.860;4.352;2022-09-02T16:25:41;29.00;66.40
26230;DHT22;13960;50.860;4.352;2022-09-02T16:28:07;29.00;65.50
26230;DHT22;13960;50.860;4.352;2022-09-02T16:30:32;28.90;65.30
26230;DHT22;13960;50.860;4.352;2022-09-02T16:32:58;29.00;66.50
26230;DHT22;13960;50.860;4.352;2022-09-02T16:35:23;28.70;66.60
26230;DHT22;13960;50.860;4.352;2022-09-02T16:37:49;28.50;66.20
26230;DHT22;13960;50.860;4.352;2022-09-02T16:40:15;28.60;66.40
26230;DHT22;13960;50.860;4.352;2022-09-02T16:42:46;28.80;66.20
26230;DHT22;13960;50.860;4.352;2022-09-02T16:45:11;28.70;66.70
26230;DHT22;13960;50.860;4.352;2022-09-02T16:47:36;28.50;66.70
26230;DHT22;13960;50.860;4.352;2022-09-02T16:50:02;28.40;66.80
26230;DHT22;13960;50.860;4.352;2022-09-02T16:52:28;28.20;67.10
26230;DHT22;13960;50.860;4.352;2022-09-02T16:54:56;28.00;67.30
26230;DHT22;13960;50.860;4.352;2022-09-02T16:57:21;28.00;67.90
26230;DHT22;13960;50.860;4.352;2022-09-02T16:59:47;28.20;67.50
26230;DHT22;13960;50.860;4.352;2022-09-02T17:02:13;28.10;66.90
26230;DHT22;13960;50.860;4.352;2022-09-02T17:04:39;28.10;66.80
26230;DHT22;13960;50.860;4.352;2022-09-02T17:07:04;28.30;67.20
26230;DHT22;13960;50.860;4.352;2022-09-02T17:09:30;28.30;66.90
26230;DHT22;13960;50.860;4.352;2022-09-02T17:11:55;28.00;67.30
26230;DHT22;13960;50.860;4.352;2022-09-02T17:14:21;27.50;67.70
26230;DHT22;13960;50.860;4.352;2022-09-02T17:16:47;27.40;68.20
26230;DHT22;13960;50.860;4.352;2022-09-02T17:19:13;27.60;68.20
26230;DHT22;13960;50.860;4.352;2022-09-02T17:21:54;27.60;68.00
26230;DHT22;13960;50.860;4.352;2022-09-02T17:24:20;27.60;68.30
26230;DHT22;13960;50.860;4.352;2022-09-02T17:26:47;27.60;68.60
26230;DHT22;13960;50.860;4.352;2022-09-02T17:29:15;27.80;68.60
26230;DHT22;13960;50.860;4.352;2022-09-02T17:31:41;27.90;68.70
26230;DHT22;13960;50.860;4.352;2022-09-02T17:34:07;28.00;69.30
26230;DHT22;13960;50.860;4.352;2022-09-02T17:36:34;28.20;68.50
26230;DHT22;13960;50.860;4.352;2022-09-02T17:39:02;28.30;68.50
26230;DHT22;13960;50.860;4.352;2022-09-02T17:41:28;28.30;69.00
26230;DHT22;13960;50.860;4.352;2022-09-02T17:44:12;28.40;68.80